sensor_id;sensor_type;location;lat;lon;timestamp;P1;durP1;ratioP1;P2;durP2;ratioP2
26335;SDS011;14047;50.936;4.654;2023-03-23T00:01:26;5.03;;;3.60;;
26335;SDS011;14047;50.936;4.654;2023-03-23T00:03:55;6.78;;;3.67;;
26335;SDS011;14047;50.936;4.654;2023-03-23T00:06:23;7.00;;;3.50;;
26335;SDS011;14047;50.936;4.654;2023-03-23T00:08:52;4.57;;;3.05;;
26335;SDS011;14047;50.936;4.654;2023-03-23T00:11:28;6.95;;;3.50;;
26335;SDS011;14047;50.936;4.654;2023-03-23T00:13:56;7.65;;;3.80;;
26335;SDS011;14047;50.936;4.654;2023-03-23T00:16:27;8.65;;;3.38;;
26335;SDS011;14047;50.936;4.654;2023-03-23T00:19:00;6.88;;;3.50;;
26335;SDS011;14047;50.936;4.654;2023-03-23T00:21:29;8.63;;;4.05;;
26335;SDS011;14047;50.936;4.654;2023-03-23T00:24:07;6.47;;;3.40;;
26335;SDS011;14047;50.936;4.654;2023-03-23T00:26:46;5.18;;;3.72;;
26335;SDS011;14047;50.936;4.654;2023-03-23T00:29:15;4.78;;;3.50;;
26335;SDS011;14047;50.936;4.654;2023-03-23T00:31:42;4.93;;;3.60;;
26335;SDS011;14047;50.936;4.654;2023-03-23T00:34:12;7.03;;;3.83;;
26335;SDS011;14047;50.936;4.654;2023-03-23T00:36:49;7.07;;;3.88;;
26335;SDS011;14047;50.936;4.654;2023-03-23T00:39:16;6.70;;;4.38;;
26335;SDS011;14047;50.936;4.654;2023-03-23T00:41:43;7.03;;;3.33;;
26335;SDS011;14047;50.936;4.654;2023-03-23T00:44:10;5.10;;;4.10;;
26335;SDS011;14047;50.936;4.654;2023-03-23T00:46:45;6.57;;;3.67;;
26335;SDS011;14047;50.936;4.654;2023-03-23T00:49:20;7.38;;;3.75;;
26335;SDS011;14047;50.936;4.654;2023-03-23T00:51:53;5.57;;;3.90;;
26335;SDS011;14047;50.936;4.654;2023-03-23T00:54:21;6.97;;;3.58;;
26335;SDS011;14047;50.936;4.654;2023-03-23T00:56:48;4.75;;;3.60;;
26335;SDS011;14047;50.936;4.654;2023-03-23T00:59:15;6.00;;;3.42;;
26335;SDS011;14047;50.936;4.654;2023-03-23T01:01:43;7.65;;;3.95;;
26335;SDS011;14047;50.936;4.654;2023-03-23T01:04:09;5.93;;;3.65;;
26335;SDS011;14047;50.936;4.654;2023-03-23T01:06:38;6.03;;;3.20;;
26335;SDS011;14047;50.936;4.654;2023-03-23T01:09:13;7.93;;;3.53;;
26335;SDS011;14047;50.936;4.654;2023-03-23T01:11:42;4.60;;;3.05;;
26335;SDS011;14047;50.936;4.654;2023-03-23T01:14:10;5.75;;;3.40;;
26335;SDS011;14047;50.936;4.654;2023-03-23T01:16:37;5.05;;;3.47;;
26335;SDS011;14047;50.936;4.654;2023-03-23T01:19:04;9.73;;;3.60;;
26335;SDS011;14047;50.936;4.654;2023-03-23T01:21:30;5.25;;;3.55;;
26335;SDS011;14047;50.936;4.654;2023-03-23T01:23:56;3.58;;;2.90;;
26335;SDS011;14047;50.936;4.654;2023-03-23T01:26:24;6.45;;;3.53;;
26335;SDS011;14047;50.936;4.654;2023-03-23T01:28:52;6.25;;;3.35;;
26335;SDS011;14047;50.936;4.654;2023-03-23T01:31:19;4.70;;;3.45;;
26335;SDS011;14047;50.936;4.654;2023-03-23T01:33:47;8.73;;;3.50;;
26335;SDS011;14047;50.936;4.654;2023-03-23T01:36:17;10.18;;;3.80;;
26335;SDS011;14047;50.936;4.654;2023-03-23T01:38:48;6.30;;;3.53;;
26335;SDS011;14047;50.936;4.654;2023-03-23T01:41:16;5.90;;;2.97;;
26335;SDS011;14047;50.936;4.654;2023-03-23T01:46:45;5.85;;;3.80;;
26335;SDS011;14047;50.936;4.654;2023-03-23T01:49:12;8.85;;;3.30;;
26335;SDS011;14047;50.936;4.654;2023-03-23T01:51:53;4.93;;;3.13;;
26335;SDS011;14047;50.936;4.654;2023-03-23T01:54:23;6.50;;;3.40;;
26335;SDS011;14047;50.936;4.654;2023-03-23T01:56:52;5.47;;;3.00;;
26335;SDS011;14047;50.936;4.654;2023-03-23T01:59:21;7.97;;;3.72;;
26335;SDS011;14047;50.936;4.654;2023-03-23T02:02:06;5.03;;;3.25;;
26335;SDS011;14047;50.936;4.654;2023-03-23T02:04:32;7.13;;;3.00;;
26335;SDS011;14047;50.936;4.654;2023-03-23T02:06:59;5.55;;;3.15;;
26335;SDS011;14047;50.936;4.654;2023-03-23T02:09:26;7.05;;;3.13;;
26335;SDS011;14047;50.936;4.654;2023-03-23T02:11:52;4.93;;;3.47;;
26335;SDS011;14047;50.936;4.654;2023-03-23T02:14:20;4.25;;;3.00;;
26335;SDS011;14047;50.936;4.654;2023-03-23T02:16:50;4.68;;;2.97;;
26335;SDS011;14047;50.936;4.654;2023-03-23T02:22:17;6.10;;;3.55;;
26335;SDS011;14047;50.936;4.654;2023-03-23T02:24:57;5.20;;;3.30;;
26335;SDS011;14047;50.936;4.654;2023-03-23T02:38:55;6.95;;;3.28;;
26335;SDS011;14047;50.936;4.654;2023-03-23T02:41:50;6.97;;;2.70;;
26335;SDS011;14047;50.936;4.654;2023-03-23T02:44:20;8.05;;;2.97;;
26335;SDS011;14047;50.936;4.654;2023-03-23T02:46:48;5.15;;;2.35;;
26335;SDS011;14047;50.936;4.654;2023-03-23T02:49:17;5.65;;;2.25;;
26335;SDS011;14047;50.936;4.654;2023-03-23T02:51:46;6.20;;;2.75;;
26335;SDS011;14047;50.936;4.654;2023-03-23T02:54:13;7.40;;;2.50;;
26335;SDS011;14047;50.936;4.654;2023-03-23T02:56:42;6.75;;;2.67;;
26335;SDS011;14047;50.936;4.654;2023-03-23T02:59:17;4.60;;;2.00;;
26335;SDS011;14047;50.936;4.654;2023-03-23T03:04:10;5.68;;;2.08;;
26335;SDS011;14047;50.936;4.654;2023-03-23T03:12:19;5.05;;;1.60;;
26335;SDS011;14047;50.936;4.654;2023-03-23T03:15:24;6.22;;;1.75;;
26335;SDS011;14047;50.936;4.654;2023-03-23T03:17:59;4.40;;;1.75;;
26335;SDS011;14047;50.936;4.654;2023-03-23T03:20:30;3.00;;;1.63;;
26335;SDS011;14047;50.936;4.654;2023-03-23T03:22:57;4.30;;;2.00;;
26335;SDS011;14047;50.936;4.654;2023-03-23T03:25:26;4.40;;;1.48;;
26335;SDS011;14047;50.936;4.654;2023-03-23T03:27:55;6.63;;;1.67;;
26335;SDS011;14047;50.936;4.654;2023-03-23T03:30:35;4.13;;;2.20;;
26335;SDS011;14047;50.936;4.654;2023-03-23T03:33:03;6.90;;;1.98;;
26335;SDS011;14047;50.936;4.654;2023-03-23T03:35:29;4.03;;;1.55;;
26335;SDS011;14047;50.936;4.654;2023-03-23T03:37:57;5.55;;;1.80;;
26335;SDS011;14047;50.936;4.654;2023-03-23T03:40:31;5.75;;;2.05;;
26335;SDS011;14047;50.936;4.654;2023-03-23T03:42:57;6.65;;;1.95;;
26335;SDS011;14047;50.936;4.654;2023-03-23T03:45:25;5.13;;;1.52;;
26335;SDS011;14047;50.936;4.654;2023-03-23T03:47:51;3.97;;;1.73;;
26335;SDS011;14047;50.936;4.654;2023-03-23T03:50:17;5.70;;;1.60;;
26335;SDS011;14047;50.936;4.654;2023-03-23T03:52:43;3.20;;;1.73;;
26335;SDS011;14047;50.936;4.654;2023-03-23T03:55:09;4.93;;;1.73;;
26335;SDS011;14047;50.936;4.654;2023-03-23T03:57:39;7.43;;;2.08;;
26335;SDS011;14047;50.936;4.654;2023-03-23T04:00:42;6.32;;;1.98;;
26335;SDS011;14047;50.936;4.654;2023-03-23T04:03:14;7.07;;;2.00;;
26335;SDS011;14047;50.936;4.654;2023-03-23T04:05:52;4.85;;;1.77;;
26335;SDS011;14047;50.936;4.654;2023-03-23T04:08:24;3.90;;;1.80;;
26335;SDS011;14047;50.936;4.654;2023-03-23T04:10:52;5.20;;;1.95;;
26335;SDS011;14047;50.936;4.654;2023-03-23T04:13:19;6.85;;;2.47;;
26335;SDS011;14047;50.936;4.654;2023-03-23T04:16:10;4.63;;;2.47;;
26335;SDS011;14047;50.936;4.654;2023-03-23T04:18:37;7.22;;;2.33;;
26335;SDS011;14047;50.936;4.654;2023-03-23T04:21:04;10.70;;;2.17;;
26335;SDS011;14047;50.936;4.654;2023-03-23T04:23:32;5.45;;;1.85;;
26335;SDS011;14047;50.936;4.654;2023-03-23T04:26:02;12.07;;;2.42;;
26335;SDS011;14047;50.936;4.654;2023-03-23T04:28:39;8.38;;;2.20;;
26335;SDS011;14047;50.936;4.654;2023-03-23T04:31:29;8.52;;;2.22;;
26335;SDS011;14047;50.936;4.654;2023-03-23T04:34:05;4.20;;;1.77;;
26335;SDS011;14047;50.936;4.654;2023-03-23T04:36:37;11.50;;;2.05;;
26335;SDS011;14047;50.936;4.654;2023-03-23T04:39:11;8.55;;;1.83;;
26335;SDS011;14047;50.936;4.654;2023-03-23T04:41:39;17.00;;;2.67;;
26335;SDS011;14047;50.936;4.654;2023-03-23T04:44:23;8.68;;;1.70;;
26335;SDS011;14047;50.936;4.654;2023-03-23T04:47:00;7.85;;;1.75;;
26335;SDS011;14047;50.936;4.654;2023-03-23T04:49:30;5.95;;;2.00;;
26335;SDS011;14047;50.936;4.654;2023-03-23T04:52:09;9.82;;;2.20;;
26335;SDS011;14047;50.936;4.654;2023-03-23T04:54:40;9.57;;;1.90;;
26335;SDS011;14047;50.936;4.654;2023-03-23T04:57:08;5.28;;;1.80;;
26335;SDS011;14047;50.936;4.654;2023-03-23T04:59:37;9.30;;;2.10;;
26335;SDS011;14047;50.936;4.654;2023-03-23T05:02:12;10.63;;;1.95;;
26335;SDS011;14047;50.936;4.654;2023-03-23T05:04:39;7.93;;;1.88;;
26335;SDS011;14047;50.936;4.654;2023-03-23T05:07:13;10.88;;;2.30;;
26335;SDS011;14047;50.936;4.654;2023-03-23T05:09:48;7.32;;;1.40;;
26335;SDS011;14047;50.936;4.654;2023-03-23T05:12:18;9.07;;;2.10;;
26335;SDS011;14047;50.936;4.654;2023-03-23T05:14:58;8.00;;;1.73;;
26335;SDS011;14047;50.936;4.654;2023-03-23T05:17:27;7.82;;;2.15;;
26335;SDS011;14047;50.936;4.654;2023-03-23T05:19:56;6.22;;;1.58;;
26335;SDS011;14047;50.936;4.654;2023-03-23T05:22:33;4.90;;;1.67;;
26335;SDS011;14047;50.936;4.654;2023-03-23T05:25:02;4.93;;;1.42;;
26335;SDS011;14047;50.936;4.654;2023-03-23T05:27:32;7.53;;;1.50;;
26335;SDS011;14047;50.936;4.654;2023-03-23T05:30:03;6.53;;;1.33;;
26335;SDS011;14047;50.936;4.654;2023-03-23T05:32:33;8.05;;;1.70;;
26335;SDS011;14047;50.936;4.654;2023-03-23T05:35:18;3.58;;;1.20;;
26335;SDS011;14047;50.936;4.654;2023-03-23T05:37:44;8.77;;;1.40;;
26335;SDS011;14047;50.936;4.654;2023-03-23T05:40:11;8.90;;;1.60;;
26335;SDS011;14047;50.936;4.654;2023-03-23T05:42:58;8.07;;;1.48;;
26335;SDS011;14047;50.936;4.654;2023-03-23T05:45:46;5.93;;;1.33;;
26335;SDS011;14047;50.936;4.654;2023-03-23T05:48:12;5.10;;;1.30;;
26335;SDS011;14047;50.936;4.654;2023-03-23T05:50:38;6.85;;;1.40;;
26335;SDS011;14047;50.936;4.654;2023-03-23T05:53:04;5.97;;;2.00;;
26335;SDS011;14047;50.936;4.654;2023-03-23T05:55:33;8.90;;;1.50;;
26335;SDS011;14047;50.936;4.654;2023-03-23T05:58:08;6.75;;;1.65;;
26335;SDS011;14047;50.936;4.654;2023-03-23T06:00:37;3.70;;;1.40;;
26335;SDS011;14047;50.936;4.654;2023-03-23T06:03:18;7.93;;;1.48;;
26335;SDS011;14047;50.936;4.654;2023-03-23T06:05:51;5.57;;;1.40;;
26335;SDS011;14047;50.936;4.654;2023-03-23T06:08:19;8.85;;;1.80;;
26335;SDS011;14047;50.936;4.654;2023-03-23T06:10:45;5.57;;;1.38;;
26335;SDS011;14047;50.936;4.654;2023-03-23T06:13:13;8.90;;;2.03;;
26335;SDS011;14047;50.936;4.654;2023-03-23T06:15:46;5.80;;;1.55;;
26335;SDS011;14047;50.936;4.654;2023-03-23T06:18:21;5.45;;;1.38;;
26335;SDS011;14047;50.936;4.654;2023-03-23T06:21:27;6.43;;;2.35;;
26335;SDS011;14047;50.936;4.654;2023-03-23T06:24:01;6.45;;;1.80;;
26335;SDS011;14047;50.936;4.654;2023-03-23T06:26:34;8.60;;;2.88;;
26335;SDS011;14047;50.936;4.654;2023-03-23T06:29:05;5.50;;;1.50;;
26335;SDS011;14047;50.936;4.654;2023-03-23T06:31:38;6.30;;;2.08;;
26335;SDS011;14047;50.936;4.654;2023-03-23T06:34:07;8.77;;;1.90;;
26335;SDS011;14047;50.936;4.654;2023-03-23T06:36:55;5.68;;;1.60;;
26335;SDS011;14047;50.936;4.654;2023-03-23T06:39:43;5.47;;;1.73;;
26335;SDS011;14047;50.936;4.654;2023-03-23T06:42:27;7.75;;;2.22;;
26335;SDS011;14047;50.936;4.654;2023-03-23T06:45:13;7.63;;;2.13;;
26335;SDS011;14047;50.936;4.654;2023-03-23T06:47:41;5.68;;;1.67;;
26335;SDS011;14047;50.936;4.654;2023-03-23T06:50:07;5.50;;;1.75;;
26335;SDS011;14047;50.936;4.654;2023-03-23T06:52:34;10.27;;;2.47;;
26335;SDS011;14047;50.936;4.654;2023-03-23T06:55:01;8.05;;;2.08;;
26335;SDS011;14047;50.936;4.654;2023-03-23T06:57:27;9.27;;;2.25;;
26335;SDS011;14047;50.936;4.654;2023-03-23T06:59:54;10.30;;;2.78;;
26335;SDS011;14047;50.936;4.654;2023-03-23T07:02:22;9.43;;;2.58;;
26335;SDS011;14047;50.936;4.654;2023-03-23T07:04:51;9.45;;;2.10;;
26335;SDS011;14047;50.936;4.654;2023-03-23T07:07:20;4.60;;;2.03;;
26335;SDS011;14047;50.936;4.654;2023-03-23T07:10:00;10.57;;;2.30;;
26335;SDS011;14047;50.936;4.654;2023-03-23T07:12:28;7.47;;;2.30;;
26335;SDS011;14047;50.936;4.654;2023-03-23T07:14:54;9.98;;;2.17;;
26335;SDS011;14047;50.936;4.654;2023-03-23T07:17:21;8.52;;;1.42;;
26335;SDS011;14047;50.936;4.654;2023-03-23T07:20:02;10.18;;;1.25;;
26335;SDS011;14047;50.936;4.654;2023-03-23T07:22:30;3.60;;;0.77;;
26335;SDS011;14047;50.936;4.654;2023-03-23T07:25:04;3.38;;;0.75;;
26335;SDS011;14047;50.936;4.654;2023-03-23T07:27:41;4.15;;;0.80;;
26335;SDS011;14047;50.936;4.654;2023-03-23T07:30:09;1.42;;;0.70;;
26335;SDS011;14047;50.936;4.654;2023-03-23T07:32:35;3.40;;;0.93;;
26335;SDS011;14047;50.936;4.654;2023-03-23T07:35:01;2.25;;;0.75;;
26335;SDS011;14047;50.936;4.654;2023-03-23T07:37:43;3.05;;;0.75;;
26335;SDS011;14047;50.936;4.654;2023-03-23T07:40:11;2.75;;;0.90;;
26335;SDS011;14047;50.936;4.654;2023-03-23T07:42:46;2.22;;;0.90;;
26335;SDS011;14047;50.936;4.654;2023-03-23T07:45:26;4.68;;;0.70;;
26335;SDS011;14047;50.936;4.654;2023-03-23T07:47:55;2.47;;;0.80;;
26335;SDS011;14047;50.936;4.654;2023-03-23T07:50:21;3.95;;;0.90;;
26335;SDS011;14047;50.936;4.654;2023-03-23T07:52:51;3.15;;;0.52;;
26335;SDS011;14047;50.936;4.654;2023-03-23T07:55:22;4.53;;;0.90;;
26335;SDS011;14047;50.936;4.654;2023-03-23T07:57:59;6.85;;;1.00;;
26335;SDS011;14047;50.936;4.654;2023-03-23T08:00:25;4.00;;;0.73;;
26335;SDS011;14047;50.936;4.654;2023-03-23T08:02:54;3.65;;;1.17;;
26335;SDS011;14047;50.936;4.654;2023-03-23T08:05:35;6.05;;;0.88;;
26335;SDS011;14047;50.936;4.654;2023-03-23T08:08:24;4.57;;;1.05;;
26335;SDS011;14047;50.936;4.654;2023-03-23T08:11:08;5.13;;;1.15;;
26335;SDS011;14047;50.936;4.654;2023-03-23T08:13:44;5.82;;;1.10;;
26335;SDS011;14047;50.936;4.654;2023-03-23T08:16:30;6.32;;;1.65;;
26335;SDS011;14047;50.936;4.654;2023-03-23T08:19:14;6.15;;;1.40;;
26335;SDS011;14047;50.936;4.654;2023-03-23T08:21:46;9.10;;;1.38;;
26335;SDS011;14047;50.936;4.654;2023-03-23T08:24:40;2.90;;;1.30;;
26335;SDS011;14047;50.936;4.654;2023-03-23T08:27:25;3.33;;;1.80;;
26335;SDS011;14047;50.936;4.654;2023-03-23T08:30:05;8.70;;;2.30;;
26335;SDS011;14047;50.936;4.654;2023-03-23T08:32:51;5.82;;;1.77;;
26335;SDS011;14047;50.936;4.654;2023-03-23T08:35:41;3.60;;;1.60;;
26335;SDS011;14047;50.936;4.654;2023-03-23T08:38:30;4.90;;;1.30;;
26335;SDS011;14047;50.936;4.654;2023-03-23T08:41:16;3.63;;;1.73;;
26335;SDS011;14047;50.936;4.654;2023-03-23T08:44:10;4.05;;;1.27;;
26335;SDS011;14047;50.936;4.654;2023-03-23T08:47:11;6.18;;;1.00;;
26335;SDS011;14047;50.936;4.654;2023-03-23T08:50:01;4.93;;;1.38;;
26335;SDS011;14047;50.936;4.654;2023-03-23T08:52:47;5.70;;;1.17;;
26335;SDS011;14047;50.936;4.654;2023-03-23T08:55:26;6.95;;;1.23;;
26335;SDS011;14047;50.936;4.654;2023-03-23T08:58:12;2.45;;;1.00;;
26335;SDS011;14047;50.936;4.654;2023-03-23T09:00:57;6.82;;;2.20;;
26335;SDS011;14047;50.936;4.654;2023-03-23T09:03:41;3.45;;;1.00;;
26335;SDS011;14047;50.936;4.654;2023-03-23T09:06:44;3.70;;;1.10;;
26335;SDS011;14047;50.936;4.654;2023-03-23T09:09:11;8.82;;;1.15;;
26335;SDS011;14047;50.936;4.654;2023-03-23T09:11:37;2.25;;;1.08;;
26335;SDS011;14047;50.936;4.654;2023-03-23T09:14:04;4.50;;;0.85;;
26335;SDS011;14047;50.936;4.654;2023-03-23T09:16:32;7.80;;;1.00;;
26335;SDS011;14047;50.936;4.654;2023-03-23T09:18:59;3.70;;;0.90;;
26335;SDS011;14047;50.936;4.654;2023-03-23T09:21:26;6.78;;;1.02;;
26335;SDS011;14047;50.936;4.654;2023-03-23T09:23:53;6.13;;;1.13;;
26335;SDS011;14047;50.936;4.654;2023-03-23T09:26:24;5.00;;;1.20;;
26335;SDS011;14047;50.936;4.654;2023-03-23T09:28:51;3.72;;;1.02;;
26335;SDS011;14047;50.936;4.654;2023-03-23T09:31:17;7.82;;;1.30;;
26335;SDS011;14047;50.936;4.654;2023-03-23T09:33:46;3.17;;;0.93;;
26335;SDS011;14047;50.936;4.654;2023-03-23T09:36:12;4.45;;;1.10;;
26335;SDS011;14047;50.936;4.654;2023-03-23T09:38:40;8.05;;;1.50;;
26335;SDS011;14047;50.936;4.654;2023-03-23T09:41:38;5.18;;;1.02;;
26335;SDS011;14047;50.936;4.654;2023-03-23T09:50:18;3.35;;;1.45;;
26335;SDS011;14047;50.936;4.654;2023-03-23T09:55:23;3.85;;;1.13;;
26335;SDS011;14047;50.936;4.654;2023-03-23T10:00:33;3.72;;;1.00;;
26335;SDS011;14047;50.936;4.654;2023-03-23T10:05:41;6.15;;;1.30;;
26335;SDS011;14047;50.936;4.654;2023-03-23T10:08:11;1.25;;;0.82;;
26335;SDS011;14047;50.936;4.654;2023-03-23T10:11:03;2.85;;;1.20;;
26335;SDS011;14047;50.936;4.654;2023-03-23T10:16:20;3.65;;;1.10;;
26335;SDS011;14047;50.936;4.654;2023-03-23T10:21:33;2.67;;;1.20;;
26335;SDS011;14047;50.936;4.654;2023-03-23T10:24:03;4.43;;;1.38;;
26335;SDS011;14047;50.936;4.654;2023-03-23T10:32:00;5.45;;;1.20;;
26335;SDS011;14047;50.936;4.654;2023-03-23T10:34:41;5.45;;;1.42;;
26335;SDS011;14047;50.936;4.654;2023-03-23T10:37:29;5.00;;;1.10;;
26335;SDS011;14047;50.936;4.654;2023-03-23T10:40:02;4.75;;;1.10;;
26335;SDS011;14047;50.936;4.654;2023-03-23T10:42:32;4.10;;;1.27;;
26335;SDS011;14047;50.936;4.654;2023-03-23T10:45:00;3.92;;;1.48;;
26335;SDS011;14047;50.936;4.654;2023-03-23T10:47:38;6.10;;;1.73;;
26335;SDS011;14047;50.936;4.654;2023-03-23T10:50:13;8.32;;;1.50;;
26335;SDS011;14047;50.936;4.654;2023-03-23T10:52:42;5.68;;;1.65;;
26335;SDS011;14047;50.936;4.654;2023-03-23T10:55:14;7.70;;;1.45;;
26335;SDS011;14047;50.936;4.654;2023-03-23T10:57:46;4.15;;;1.30;;
26335;SDS011;14047;50.936;4.654;2023-03-23T11:00:26;6.72;;;1.48;;
26335;SDS011;14047;50.936;4.654;2023-03-23T11:05:40;4.75;;;1.70;;
26335;SDS011;14047;50.936;4.654;2023-03-23T11:08:13;8.00;;;2.03;;
26335;SDS011;14047;50.936;4.654;2023-03-23T11:10:47;7.35;;;2.10;;
26335;SDS011;14047;50.936;4.654;2023-03-23T11:13:16;4.47;;;1.70;;
26335;SDS011;14047;50.936;4.654;2023-03-23T11:15:44;6.32;;;1.90;;
26335;SDS011;14047;50.936;4.654;2023-03-23T11:20:43;11.23;;;1.98;;
26335;SDS011;14047;50.936;4.654;2023-03-23T11:28:38;9.75;;;2.30;;
26335;SDS011;14047;50.936;4.654;2023-03-23T11:32:02;10.75;;;2.35;;
26335;SDS011;14047;50.936;4.654;2023-03-23T11:36:59;8.77;;;1.92;;
26335;SDS011;14047;50.936;4.654;2023-03-23T11:39:54;15.68;;;2.20;;
26335;SDS011;14047;50.936;4.654;2023-03-23T11:42:26;6.15;;;2.20;;
26335;SDS011;14047;50.936;4.654;2023-03-23T11:51:05;5.38;;;1.67;;
26335;SDS011;14047;50.936;4.654;2023-03-23T11:53:52;7.30;;;2.25;;
26335;SDS011;14047;50.936;4.654;2023-03-23T11:56:35;7.57;;;1.77;;
26335;SDS011;14047;50.936;4.654;2023-03-23T11:59:05;9.18;;;1.85;;
26335;SDS011;14047;50.936;4.654;2023-03-23T12:04:35;6.53;;;1.92;;
26335;SDS011;14047;50.936;4.654;2023-03-23T12:26:50;6.38;;;1.75;;
26335;SDS011;14047;50.936;4.654;2023-03-23T12:46:15;9.13;;;2.10;;
26335;SDS011;14047;50.936;4.654;2023-03-23T12:48:47;5.88;;;1.58;;
26335;SDS011;14047;50.936;4.654;2023-03-23T12:51:21;7.90;;;1.55;;
26335;SDS011;14047;50.936;4.654;2023-03-23T12:54:07;8.00;;;1.77;;
26335;SDS011;14047;50.936;4.654;2023-03-23T12:56:37;11.10;;;1.58;;
26335;SDS011;14047;50.936;4.654;2023-03-23T12:59:16;9.13;;;2.00;;
26335;SDS011;14047;50.936;4.654;2023-03-23T13:01:48;6.63;;;1.33;;
26335;SDS011;14047;50.936;4.654;2023-03-23T13:04:30;8.77;;;1.90;;
26335;SDS011;14047;50.936;4.654;2023-03-23T13:07:02;3.75;;;1.30;;
26335;SDS011;14047;50.936;4.654;2023-03-23T13:09:46;11.73;;;1.92;;
26335;SDS011;14047;50.936;4.654;2023-03-23T13:12:29;6.10;;;1.85;;
26335;SDS011;14047;50.936;4.654;2023-03-23T13:23:53;8.45;;;2.55;;
26335;SDS011;14047;50.936;4.654;2023-03-23T13:26:39;8.75;;;2.47;;
26335;SDS011;14047;50.936;4.654;2023-03-23T13:32:06;9.57;;;2.28;;
26335;SDS011;14047;50.936;4.654;2023-03-23T13:34:38;8.70;;;1.83;;
26335;SDS011;14047;50.936;4.654;2023-03-23T13:37:10;9.57;;;1.90;;
26335;SDS011;14047;50.936;4.654;2023-03-23T13:39:48;5.97;;;2.25;;
26335;SDS011;14047;50.936;4.654;2023-03-23T13:42:25;8.10;;;2.25;;
26335;SDS011;14047;50.936;4.654;2023-03-23T13:47:39;8.15;;;1.98;;
26335;SDS011;14047;50.936;4.654;2023-03-23T13:50:10;11.65;;;2.40;;
26335;SDS011;14047;50.936;4.654;2023-03-23T13:52:54;11.30;;;2.38;;
26335;SDS011;14047;50.936;4.654;2023-03-23T14:13:32;11.10;;;2.58;;
26335;SDS011;14047;50.936;4.654;2023-03-23T14:16:20;6.07;;;1.90;;
26335;SDS011;14047;50.936;4.654;2023-03-23T14:18:52;7.50;;;1.92;;
26335;SDS011;14047;50.936;4.654;2023-03-23T14:21:30;6.40;;;1.98;;
26335;SDS011;14047;50.936;4.654;2023-03-23T14:24:03;6.15;;;1.38;;
26335;SDS011;14047;50.936;4.654;2023-03-23T14:26:35;3.13;;;1.10;;
26335;SDS011;14047;50.936;4.654;2023-03-23T14:29:02;10.65;;;1.38;;
26335;SDS011;14047;50.936;4.654;2023-03-23T14:31:29;7.40;;;1.60;;
26335;SDS011;14047;50.936;4.654;2023-03-23T14:33:56;5.53;;;1.42;;
26335;SDS011;14047;50.936;4.654;2023-03-23T14:36:31;5.85;;;1.98;;
26335;SDS011;14047;50.936;4.654;2023-03-23T14:41:45;8.88;;;2.22;;
26335;SDS011;14047;50.936;4.654;2023-03-23T14:44:13;8.68;;;2.10;;
26335;SDS011;14047;50.936;4.654;2023-03-23T14:46:43;7.78;;;2.05;;
26335;SDS011;14047;50.936;4.654;2023-03-23T14:49:11;8.75;;;2.00;;
26335;SDS011;14047;50.936;4.654;2023-03-23T14:51:48;10.63;;;1.92;;
26335;SDS011;14047;50.936;4.654;2023-03-23T14:54:21;10.38;;;2.15;;
26335;SDS011;14047;50.936;4.654;2023-03-23T14:56:49;7.50;;;2.22;;
26335;SDS011;14047;50.936;4.654;2023-03-23T14:59:15;7.75;;;1.85;;
26335;SDS011;14047;50.936;4.654;2023-03-23T15:01:41;6.68;;;2.08;;
26335;SDS011;14047;50.936;4.654;2023-03-23T15:04:11;11.55;;;2.33;;
26335;SDS011;14047;50.936;4.654;2023-03-23T15:06:41;10.40;;;2.40;;
26335;SDS011;14047;50.936;4.654;2023-03-23T15:09:11;7.50;;;2.50;;
26335;SDS011;14047;50.936;4.654;2023-03-23T15:11:40;10.98;;;2.22;;
26335;SDS011;14047;50.936;4.654;2023-03-23T15:14:14;8.35;;;2.67;;
26335;SDS011;14047;50.936;4.654;2023-03-23T15:16:49;5.15;;;1.70;;
26335;SDS011;14047;50.936;4.654;2023-03-23T15:19:42;12.32;;;2.10;;
26335;SDS011;14047;50.936;4.654;2023-03-23T15:22:18;5.22;;;1.70;;
26335;SDS011;14047;50.936;4.654;2023-03-23T15:24:47;7.30;;;2.13;;
26335;SDS011;14047;50.936;4.654;2023-03-23T15:27:16;11.70;;;1.70;;
26335;SDS011;14047;50.936;4.654;2023-03-23T15:29:58;7.57;;;2.00;;
26335;SDS011;14047;50.936;4.654;2023-03-23T15:32:41;8.50;;;1.85;;
26335;SDS011;14047;50.936;4.654;2023-03-23T15:35:13;12.68;;;1.95;;
26335;SDS011;14047;50.936;4.654;2023-03-23T15:37:43;9.13;;;2.28;;
26335;SDS011;14047;50.936;4.654;2023-03-23T15:40:17;8.70;;;1.90;;
26335;SDS011;14047;50.936;4.654;2023-03-23T15:42:46;4.85;;;1.85;;
26335;SDS011;14047;50.936;4.654;2023-03-23T15:52:51;12.45;;;2.63;;
26335;SDS011;14047;50.936;4.654;2023-03-23T15:57:55;8.98;;;2.40;;
26335;SDS011;14047;50.936;4.654;2023-03-23T16:00:26;12.95;;;2.45;;
26335;SDS011;14047;50.936;4.654;2023-03-23T16:02:58;15.25;;;3.17;;
26335;SDS011;14047;50.936;4.654;2023-03-23T16:05:26;9.75;;;2.20;;
26335;SDS011;14047;50.936;4.654;2023-03-23T16:07:52;11.90;;;2.85;;
26335;SDS011;14047;50.936;4.654;2023-03-23T16:10:19;11.13;;;2.72;;
26335;SDS011;14047;50.936;4.654;2023-03-23T16:12:47;10.95;;;2.90;;
26335;SDS011;14047;50.936;4.654;2023-03-23T16:15:13;10.35;;;2.72;;
26335;SDS011;14047;50.936;4.654;2023-03-23T16:17:40;7.72;;;2.28;;
26335;SDS011;14047;50.936;4.654;2023-03-23T16:22:39;9.30;;;2.85;;
26335;SDS011;14047;50.936;4.654;2023-03-23T16:25:05;9.65;;;2.70;;
26335;SDS011;14047;50.936;4.654;2023-03-23T16:27:32;9.57;;;2.60;;
26335;SDS011;14047;50.936;4.654;2023-03-23T16:29:57;10.30;;;2.80;;
26335;SDS011;14047;50.936;4.654;2023-03-23T16:32:25;8.88;;;2.35;;
26335;SDS011;14047;50.936;4.654;2023-03-23T16:34:51;10.68;;;2.65;;
26335;SDS011;14047;50.936;4.654;2023-03-23T16:37:17;15.40;;;2.78;;
26335;SDS011;14047;50.936;4.654;2023-03-23T16:39:43;8.57;;;2.38;;
26335;SDS011;14047;50.936;4.654;2023-03-23T16:42:09;9.00;;;2.38;;
26335;SDS011;14047;50.936;4.654;2023-03-23T16:44:35;4.28;;;1.90;;
26335;SDS011;14047;50.936;4.654;2023-03-23T16:47:01;5.45;;;1.98;;
26335;SDS011;14047;50.936;4.654;2023-03-23T16:49:27;7.43;;;2.08;;
26335;SDS011;14047;50.936;4.654;2023-03-23T16:51:53;9.05;;;2.30;;
26335;SDS011;14047;50.936;4.654;2023-03-23T16:54:18;10.63;;;2.28;;
26335;SDS011;14047;50.936;4.654;2023-03-23T16:56:44;8.45;;;2.38;;
26335;SDS011;14047;50.936;4.654;2023-03-23T16:59:13;8.07;;;2.13;;
26335;SDS011;14047;50.936;4.654;2023-03-23T17:01:39;9.32;;;2.22;;
26335;SDS011;14047;50.936;4.654;2023-03-23T17:04:07;10.98;;;2.67;;
26335;SDS011;14047;50.936;4.654;2023-03-23T17:06:33;9.10;;;2.08;;
26335;SDS011;14047;50.936;4.654;2023-03-23T17:08:59;7.45;;;2.10;;
26335;SDS011;14047;50.936;4.654;2023-03-23T17:11:25;10.73;;;2.38;;
26335;SDS011;14047;50.936;4.654;2023-03-23T17:13:50;9.98;;;2.22;;
26335;SDS011;14047;50.936;4.654;2023-03-23T17:16:16;8.43;;;2.30;;
26335;SDS011;14047;50.936;4.654;2023-03-23T17:18:42;7.05;;;2.30;;
26335;SDS011;14047;50.936;4.654;2023-03-23T17:21:08;10.50;;;2.17;;
26335;SDS011;14047;50.936;4.654;2023-03-23T17:23:34;8.57;;;2.30;;
26335;SDS011;14047;50.936;4.654;2023-03-23T17:26:00;7.30;;;2.15;;
26335;SDS011;14047;50.936;4.654;2023-03-23T17:28:26;9.43;;;3.17;;
26335;SDS011;14047;50.936;4.654;2023-03-23T17:30:52;8.68;;;2.28;;
26335;SDS011;14047;50.936;4.654;2023-03-23T17:33:18;12.90;;;2.60;;
26335;SDS011;14047;50.936;4.654;2023-03-23T17:35:45;15.57;;;2.67;;
26335;SDS011;14047;50.936;4.654;2023-03-23T17:38:11;8.20;;;2.50;;
26335;SDS011;14047;50.936;4.654;2023-03-23T17:40:37;12.45;;;2.90;;
26335;SDS011;14047;50.936;4.654;2023-03-23T17:43:03;5.40;;;2.13;;
26335;SDS011;14047;50.936;4.654;2023-03-23T17:45:29;7.57;;;2.15;;
26335;SDS011;14047;50.936;4.654;2023-03-23T17:47:55;12.23;;;2.60;;
26335;SDS011;14047;50.936;4.654;2023-03-23T17:50:21;17.15;;;3.45;;
26335;SDS011;14047;50.936;4.654;2023-03-23T17:52:47;14.18;;;2.67;;
26335;SDS011;14047;50.936;4.654;2023-03-23T17:55:14;10.65;;;3.03;;